GMTN

Saniat Rmel Airport

Morocco
METAR GMTN 241100Z 26011KT 230V290 8000 SCT016 BKN033 21/14 Q1013 NOSIG
Observed Flight Rules
May-24 @ 11:00 UTC (an hour ago) Marginal Visual Flight Rules
Wind Visibility Clouds
260° at 11 knots 7,998 meters
  • Scattered at 1,600' AGL
  • Broken at 3,300' AGL
Temperatures Readings
Current 21°C / 70°F
Dewpoint 14°C / 57°F
Humidity 64%
Altimeter 29.91" Hg
Pressure 1013 hPa
Elevation 10
METAR GMTN 241100Z 26011KT 230V290 8000 SCT016 BKN033 21/14 Q1013 NOSIG
Observed Flight Rules
May-24 @ 11:00 UTC
(an hour ago)
MVFR
Wind Visibility
260° at 11 knots 7,998 meters
Clouds
  • Scattered at 1,600' AGL
  • Broken at 3,300' AGL
Temperature Dewpoint
21°C / 70°F 14°C / 57°F
Humidity Altimeter Pressure
64% 29.91" Hg 1013 hPa